createdAt,value
2018-05-02T00:00:20.705Z,0
2018-05-02T00:01:21.029Z,0
2018-05-02T00:02:20.897Z,0
2018-05-02T00:03:20.381Z,0
2018-05-02T00:04:20.841Z,0
2018-05-02T00:05:20.565Z,0
2018-05-02T00:06:20.284Z,0
2018-05-02T00:07:20.261Z,0
2018-05-02T00:08:20.726Z,0
2018-05-02T00:09:20.445Z,0
2018-05-02T00:10:20.678Z,0
2018-05-02T00:11:20.651Z,0
2018-05-02T00:12:20.629Z,0
2018-05-02T00:13:20.343Z,0
2018-05-02T00:14:20.567Z,0
2018-05-02T00:15:20.546Z,0
2018-05-02T00:16:20.634Z,0
2018-05-02T00:17:19.986Z,0
2018-05-02T00:18:20.388Z,0
2018-05-02T00:19:20.434Z,0
2018-05-02T00:20:20.402Z,0
2018-05-02T00:21:20.384Z,0
2018-05-02T00:22:20.343Z,0
2018-05-02T00:23:20.072Z,0
2018-05-02T00:24:20.290Z,0
2018-05-02T00:25:20.014Z,0
2018-05-02T00:26:20.236Z,0
2018-05-02T00:27:20.214Z,0
2018-05-02T00:28:20.174Z,0
2018-05-02T00:29:19.899Z,0
2018-05-02T00:30:19.620Z,0
2018-05-02T00:31:19.845Z,0
2018-05-02T00:32:20.075Z,0
2018-05-02T00:33:19.537Z,0
2018-05-02T00:34:19.767Z,0
2018-05-02T00:35:19.974Z,0
2018-05-02T00:36:19.708Z,0
2018-05-02T00:37:19.426Z,0
2018-05-02T00:38:19.901Z,0
2018-05-02T00:39:19.370Z,0
2018-05-02T00:40:19.852Z,0
2018-05-02T00:41:19.820Z,0
2018-05-02T00:42:19.785Z,0
2018-05-02T00:43:19.767Z,0
2018-05-02T00:44:19.807Z,0
2018-05-02T00:45:19.706Z,0
2018-05-02T00:46:19.678Z,0
2018-05-02T00:47:19.148Z,0
2018-05-02T00:48:19.631Z,0
2018-05-02T00:49:19.354Z,0
2018-05-02T00:50:19.564Z,0
2018-05-02T00:51:19.037Z,0
2018-05-02T00:52:19.509Z,0
2018-05-02T00:53:19.484Z,0
2018-05-02T00:54:19.456Z,0
2018-05-02T00:55:19.425Z,0
2018-05-02T00:56:19.398Z,0
2018-05-02T00:57:19.680Z,0
2018-05-02T00:58:19.338Z,0
2018-05-02T00:59:19.309Z,0
2018-05-02T01:00:19.281Z,0
2018-05-02T01:01:19.268Z,0
2018-05-02T01:02:19.247Z,0
2018-05-02T01:03:18.948Z,0
2018-05-02T01:04:18.936Z,0
2018-05-02T01:05:19.138Z,0
2018-05-02T01:06:18.868Z,0
2018-05-02T01:07:19.091Z,0
2018-05-02T01:08:19.056Z,0
2018-05-02T01:09:19.028Z,0
2018-05-02T01:10:18.998Z,0
2018-05-02T01:11:18.731Z,0
2018-05-02T01:12:18.948Z,0
2018-05-02T01:13:18.917Z,0
2018-05-02T01:14:18.895Z,0
2018-05-02T01:15:18.618Z,0
2018-05-02T01:16:18.871Z,0
2018-05-02T01:17:18.564Z,0
2018-05-02T01:18:18.777Z,0
2018-05-02T01:19:18.500Z,0
2018-05-02T01:20:18.246Z,0
2018-05-02T01:21:18.202Z,0
2018-05-02T01:22:18.664Z,0
2018-05-02T01:23:18.638Z,0
2018-05-02T01:24:18.613Z,0
2018-05-02T01:25:18.584Z,0
2018-05-02T01:26:18.646Z,0
2018-05-02T01:27:18.281Z,0
2018-05-02T01:28:18.301Z,0
2018-05-02T01:29:18.464Z,0
2018-05-02T01:30:17.943Z,0
2018-05-02T01:31:17.919Z,0
2018-05-02T01:32:18.136Z,0
2018-05-02T01:33:18.106Z,0
2018-05-02T01:34:18.336Z,0
2018-05-02T01:35:18.142Z,0
2018-05-02T01:36:18.272Z,0
2018-05-02T01:37:17.745Z,0
2018-05-02T01:38:18.224Z,0
2018-05-02T01:39:18.190Z,0
2018-05-02T01:40:17.913Z,0
2018-05-02T01:41:18.128Z,0
2018-05-02T01:42:18.107Z,0
2018-05-02T01:43:18.081Z,0
2018-05-02T01:44:17.796Z,0
2018-05-02T01:45:17.767Z,0
2018-05-02T01:46:17.736Z,0
2018-05-02T01:47:17.962Z,0
2018-05-02T01:48:17.685Z,0
2018-05-02T01:49:17.415Z,0
2018-05-02T01:50:17.878Z,0
2018-05-02T01:51:17.608Z,0
2018-05-02T01:52:17.824Z,0
2018-05-02T01:53:17.794Z,0
2018-05-02T01:54:17.517Z,0
2018-05-02T01:55:17.498Z,0
2018-05-02T01:56:17.710Z,0
2018-05-02T01:57:17.184Z,0
2018-05-02T01:58:17.653Z,0
2018-05-02T01:59:17.627Z,0
2018-05-02T02:00:17.600Z,0
2018-05-02T02:01:17.564Z,0
2018-05-02T02:02:17.287Z,0
2018-05-02T02:03:17.522Z,0
2018-05-02T02:04:17.484Z,0
2018-05-02T02:05:17.456Z,0
2018-05-02T02:06:17.183Z,0
2018-05-02T02:07:17.152Z,0
2018-05-02T02:08:17.451Z,0
2018-05-02T02:09:17.332Z,0
2018-05-02T02:10:17.317Z,0
2018-05-02T02:11:17.283Z,0
2018-05-02T02:12:17.257Z,0
2018-05-02T02:13:17.227Z,0
2018-05-02T02:14:17.540Z,0
2018-05-02T02:15:16.932Z,0
2018-05-02T02:16:17.156Z,0
2018-05-02T02:17:16.873Z,0
2018-05-02T02:18:17.092Z,0
2018-05-02T02:19:16.814Z,0
2018-05-02T02:20:17.036Z,0
2018-05-02T02:21:16.749Z,0
2018-05-02T02:22:16.978Z,0
2018-05-02T02:23:16.957Z,0
2018-05-02T02:24:16.934Z,0
2018-05-02T02:25:16.898Z,0
2018-05-02T02:26:16.868Z,0
2018-05-02T02:27:16.830Z,0
2018-05-02T02:28:16.814Z,0
2018-05-02T02:29:16.535Z,0
2018-05-02T02:30:16.751Z,0
2018-05-02T02:31:16.564Z,0
2018-05-02T02:32:16.445Z,0
2018-05-02T02:33:16.666Z,0
2018-05-02T02:34:16.861Z,0
2018-05-02T02:35:15.618Z,0
2018-05-02T02:36:16.581Z,0
2018-05-02T02:37:16.550Z,0
2018-05-02T02:38:16.536Z,0
2018-05-02T02:39:16.493Z,0
2018-05-02T02:40:16.221Z,0
2018-05-02T02:41:15.945Z,0
2018-05-02T02:42:16.156Z,0
2018-05-02T02:43:16.396Z,0
2018-05-02T02:44:16.361Z,0
2018-05-02T02:45:15.828Z,0
2018-05-02T02:46:16.052Z,0
2018-05-02T02:47:16.022Z,0
2018-05-02T02:48:15.995Z,0
2018-05-02T02:49:16.210Z,0
2018-05-02T02:50:15.931Z,0
2018-05-02T02:51:15.904Z,0
2018-05-02T02:52:16.124Z,0
2018-05-02T02:53:16.095Z,0
2018-05-02T02:54:16.089Z,0
2018-05-02T02:55:16.253Z,0
2018-05-02T02:56:15.515Z,0
2018-05-02T02:57:16.040Z,0
2018-05-02T02:58:15.956Z,0
2018-05-02T02:59:15.923Z,0
2018-05-02T03:00:15.651Z,0
2018-05-02T03:01:15.881Z,0
2018-05-02T03:02:15.862Z,0
2018-05-02T03:03:15.813Z,0
2018-05-02T03:04:15.785Z,0
2018-05-02T03:05:15.528Z,0
2018-05-02T03:06:15.738Z,0
2018-05-02T03:07:15.703Z,0
2018-05-02T03:08:15.430Z,0
2018-05-02T03:09:15.651Z,0
2018-05-02T03:10:15.628Z,0
2018-05-02T03:11:15.596Z,0
2018-05-02T03:12:15.306Z,0
2018-05-02T03:13:15.533Z,0
2018-05-02T03:14:15.264Z,0
2018-05-02T03:15:15.484Z,0
2018-05-02T03:16:15.196Z,0
2018-05-02T03:17:15.437Z,0
2018-05-02T03:18:15.386Z,0
2018-05-02T03:19:15.365Z,0
2018-05-02T03:20:15.073Z,0
2018-05-02T03:21:15.297Z,0
2018-05-02T03:22:15.020Z,0
2018-05-02T03:23:14.992Z,0
2018-05-02T03:24:14.728Z,0
2018-05-02T03:25:14.935Z,0
2018-05-02T03:26:14.900Z,0
2018-05-02T03:27:15.347Z,0
2018-05-02T03:28:15.085Z,0
2018-05-02T03:29:15.065Z,0
2018-05-02T03:30:14.804Z,0
2018-05-02T03:31:15.020Z,0
2018-05-02T03:32:13.985Z,0
2018-05-02T03:33:14.957Z,0
2018-05-02T03:34:14.680Z,0
2018-05-02T03:35:14.893Z,0
2018-05-02T03:36:14.627Z,0
2018-05-02T03:37:14.592Z,0
2018-05-02T03:38:14.563Z,0
2018-05-02T03:39:14.036Z,0
2018-05-02T03:40:14.501Z,0
2018-05-02T03:41:14.733Z,0
2018-05-02T03:42:14.195Z,0
2018-05-02T03:43:14.664Z,0
2018-05-02T03:44:14.381Z,0
2018-05-02T03:45:14.604Z,0
2018-05-02T03:46:13.835Z,0
2018-05-02T03:47:14.547Z,5
2018-05-02T03:48:14.513Z,5
2018-05-02T03:49:14.247Z,5
2018-05-02T03:50:14.221Z,5
2018-05-02T03:51:14.441Z,5
2018-05-02T03:52:14.172Z,5
2018-05-02T03:53:14.557Z,10
2018-05-02T03:54:13.606Z,10
2018-05-02T03:55:14.322Z,10
2018-05-02T03:56:14.055Z,10
2018-05-02T03:57:14.265Z,10
2018-05-02T03:58:14.237Z,15
2018-05-02T03:59:14.204Z,15
2018-05-02T04:00:13.928Z,15
2018-05-02T04:01:13.650Z,20
2018-05-02T04:02:14.118Z,20
2018-05-02T04:03:14.088Z,20
2018-05-02T04:04:14.063Z,25
2018-05-02T04:05:14.029Z,25
2018-05-02T04:06:13.750Z,25
2018-05-02T04:07:13.975Z,30
2018-05-02T04:08:13.700Z,30
2018-05-02T04:09:13.429Z,35
2018-05-02T04:10:13.641Z,35
2018-05-02T04:11:13.876Z,40
2018-05-02T04:12:13.832Z,40
2018-05-02T04:13:13.801Z,45
2018-05-02T04:14:13.861Z,45
2018-05-02T04:15:13.494Z,50
2018-05-02T04:16:13.470Z,50
2018-05-02T04:17:13.442Z,55
2018-05-02T04:18:13.415Z,55
2018-05-02T04:19:13.646Z,60
2018-05-02T04:20:13.609Z,60
2018-05-02T04:21:13.569Z,65
2018-05-02T04:22:13.052Z,70
2018-05-02T04:23:13.526Z,70
2018-05-02T04:24:13.488Z,75
2018-05-02T04:25:13.469Z,75
2018-05-02T04:26:13.523Z,80
2018-05-02T04:27:12.662Z,80
2018-05-02T04:28:12.885Z,85
2018-05-02T04:29:13.363Z,90
2018-05-02T04:30:13.075Z,90
2018-05-02T04:31:13.045Z,95
2018-05-02T04:32:12.771Z,95
2018-05-02T04:33:12.984Z,100
2018-05-02T04:34:12.956Z,100
2018-05-02T04:35:13.181Z,105
2018-05-02T04:36:13.177Z,110
2018-05-02T04:37:12.871Z,110
2018-05-02T04:38:12.850Z,115
2018-05-02T04:39:12.830Z,115
2018-05-02T04:40:12.785Z,120
2018-05-02T04:41:13.087Z,125
2018-05-02T04:42:12.481Z,125
2018-05-02T04:43:12.456Z,130
2018-05-02T04:44:12.683Z,130
2018-05-02T04:45:12.404Z,135
2018-05-02T04:46:12.735Z,135
2018-05-02T04:47:12.604Z,140
2018-05-02T04:48:12.563Z,145
2018-05-02T04:49:12.786Z,145
2018-05-02T04:50:12.759Z,150
2018-05-02T04:51:11.737Z,150
2018-05-02T04:52:12.452Z,155
2018-05-02T04:53:12.428Z,155
2018-05-02T04:54:12.641Z,160
2018-05-02T04:55:12.121Z,160
2018-05-02T04:56:12.601Z,165
2018-05-02T04:57:12.577Z,165
2018-05-02T04:58:12.540Z,170
2018-05-02T04:59:12.266Z,170
2018-05-02T05:00:12.485Z,175
2018-05-02T05:01:12.447Z,175
2018-05-02T05:02:12.437Z,180
2018-05-02T05:03:12.394Z,180
2018-05-02T05:04:12.125Z,180
2018-05-02T05:05:12.349Z,180
2018-05-02T05:06:12.316Z,185
2018-05-02T05:07:11.790Z,185
2018-05-02T05:08:12.004Z,195
2018-05-02T05:09:12.233Z,190
2018-05-02T05:10:11.958Z,195
2018-05-02T05:11:12.172Z,195
2018-05-02T05:12:12.241Z,200
2018-05-02T05:13:12.124Z,200
2018-05-02T05:14:11.850Z,205
2018-05-02T05:15:12.063Z,210
2018-05-02T05:16:11.291Z,210
2018-05-02T05:17:12.024Z,215
2018-05-02T05:18:11.985Z,215
2018-05-02T05:19:11.708Z,220
2018-05-02T05:20:11.429Z,225
2018-05-02T05:21:11.652Z,225
2018-05-02T05:22:11.885Z,230
2018-05-02T05:23:11.595Z,230
2018-05-02T05:24:11.578Z,235
2018-05-02T05:25:11.297Z,240
2018-05-02T05:26:11.519Z,240
2018-05-02T05:27:11.488Z,245
2018-05-02T05:28:11.574Z,250
2018-05-02T05:29:11.690Z,250
2018-05-02T05:30:11.415Z,255
2018-05-02T05:31:11.388Z,255
2018-05-02T05:32:11.606Z,260
2018-05-02T05:33:11.577Z,265
2018-05-02T05:34:11.556Z,265
2018-05-02T05:35:11.563Z,270
2018-05-02T05:36:11.248Z,275
2018-05-02T05:37:10.968Z,270
2018-05-02T05:38:11.196Z,275
2018-05-02T05:39:11.427Z,275
2018-05-02T05:40:11.388Z,280
2018-05-02T05:41:11.367Z,280
2018-05-02T05:42:11.091Z,290
2018-05-02T05:43:10.810Z,285
2018-05-02T05:44:11.037Z,290
2018-05-02T05:45:11.026Z,290
2018-05-02T05:46:10.729Z,290
2018-05-02T05:47:11.201Z,295
2018-05-02T05:48:10.926Z,295
2018-05-02T05:49:10.663Z,295
2018-05-02T05:50:10.881Z,300
2018-05-02T05:51:10.353Z,360
2018-05-02T05:52:10.579Z,555
2018-05-02T05:53:10.811Z,720
2018-05-02T05:54:10.953Z,740
2018-05-02T05:55:10.997Z,755
2018-05-02T05:56:10.483Z,765
2018-05-02T05:57:10.194Z,800
2018-05-02T05:58:10.421Z,825
2018-05-02T05:59:10.394Z,815
2018-05-02T06:00:10.874Z,815
2018-05-02T06:01:10.098Z,835
2018-05-02T06:02:10.572Z,835
2018-05-02T06:03:10.293Z,835
2018-05-02T06:04:10.526Z,860
2018-05-02T06:05:10.698Z,875
2018-05-02T06:06:10.536Z,895
2018-05-02T06:07:10.706Z,910
2018-05-02T06:08:10.177Z,910
2018-05-02T06:09:10.150Z,940
2018-05-02T06:10:10.381Z,940
2018-05-02T06:11:10.357Z,940
2018-05-02T06:12:10.584Z,960
2018-05-02T06:13:10.310Z,965
2018-05-02T06:14:10.286Z,980
2018-05-02T06:15:10.283Z,995
2018-05-02T06:16:09.997Z,985
2018-05-02T06:17:10.228Z,1010
2018-05-02T06:18:10.217Z,1020
2018-05-02T06:19:10.182Z,1035
2018-05-02T06:20:10.806Z,1010
2018-05-02T06:21:09.887Z,1000
2018-05-02T06:22:10.114Z,800
2018-05-02T06:23:10.345Z,515
2018-05-02T06:24:10.328Z,365
2018-05-02T06:25:10.083Z,360
2018-05-02T06:26:09.970Z,365
2018-05-02T06:27:10.016Z,430
2018-05-02T06:28:09.984Z,740
2018-05-02T06:29:09.964Z,1040
2018-05-02T06:30:09.958Z,1100
2018-05-02T06:31:09.922Z,1110
2018-05-02T06:32:10.128Z,1130
2018-05-02T06:33:09.633Z,1145
2018-05-02T06:34:10.105Z,1155
2018-05-02T06:35:10.084Z,1160
2018-05-02T06:36:09.572Z,1185
2018-05-02T06:37:09.544Z,1200
2018-05-02T06:38:09.547Z,1205
2018-05-02T06:39:10.993Z,1215
2018-05-02T06:40:09.491Z,1235
2018-05-02T06:41:09.762Z,1215
2018-05-02T06:42:10.667Z,1215
2018-05-02T06:43:09.679Z,1215
2018-05-02T06:44:09.658Z,1235
2018-05-02T06:45:09.631Z,1245
2018-05-02T06:46:09.865Z,1275
2018-05-02T06:47:10.841Z,1255
2018-05-02T06:48:09.586Z,1220
2018-05-02T06:49:09.392Z,985
2018-05-02T06:50:09.542Z,655
2018-05-02T06:51:09.778Z,415
2018-05-02T06:52:09.767Z,400
2018-05-02T06:53:09.743Z,410
2018-05-02T06:54:09.717Z,445
2018-05-02T06:55:09.708Z,640
2018-05-02T06:56:09.182Z,990
2018-05-02T06:57:09.665Z,1285
2018-05-02T06:58:08.897Z,1365
2018-05-02T06:59:09.633Z,1420
2018-05-02T07:00:09.364Z,1375
2018-05-02T07:01:09.591Z,1390
2018-05-02T07:02:09.572Z,1395
2018-05-02T07:03:09.549Z,1440
2018-05-02T07:04:09.036Z,1450
2018-05-02T07:05:09.271Z,1475
2018-05-02T07:06:09.250Z,1495
2018-05-02T07:07:08.859Z,1490
2018-05-02T07:08:09.467Z,1420
2018-05-02T07:09:09.440Z,1400
2018-05-02T07:10:09.447Z,1455
2018-05-02T07:11:09.411Z,1385
2018-05-02T07:12:09.154Z,1375
2018-05-02T07:13:09.373Z,1350
2018-05-02T07:14:08.858Z,1375
2018-05-02T07:15:09.340Z,1345
2018-05-02T07:16:09.335Z,1305
2018-05-02T07:17:08.811Z,1240
2018-05-02T07:18:09.046Z,1185
2018-05-02T07:19:09.277Z,1155
2018-05-02T07:20:09.278Z,1110
2018-05-02T07:21:08.998Z,1020
2018-05-02T07:22:08.982Z,940
2018-05-02T07:23:09.207Z,920
2018-05-02T07:24:09.443Z,885
2018-05-02T07:25:09.204Z,860
2018-05-02T07:26:09.161Z,855
2018-05-02T07:27:08.914Z,835
2018-05-02T07:28:08.886Z,885
2018-05-02T07:29:09.133Z,1140
2018-05-02T07:30:08.110Z,1355
2018-05-02T07:31:08.599Z,1335
2018-05-02T07:32:09.072Z,1355
2018-05-02T07:33:08.542Z,1440
2018-05-02T07:34:08.795Z,1380
2018-05-02T07:35:08.527Z,1090
2018-05-02T07:36:08.766Z,1090
2018-05-02T07:37:08.999Z,1505
2018-05-02T07:38:08.729Z,1280
2018-05-02T07:39:08.723Z,740
2018-05-02T07:40:08.695Z,870
2018-05-02T07:41:08.436Z,1255
2018-05-02T07:42:09.558Z,1350
2018-05-02T07:43:08.681Z,1305
2018-05-02T07:44:08.779Z,1455
2018-05-02T07:45:08.619Z,1565
2018-05-02T07:46:08.995Z,1560
2018-05-02T07:47:08.774Z,1565
2018-05-02T07:48:08.585Z,1545
2018-05-02T07:49:08.352Z,1540
2018-05-02T07:50:08.549Z,1550
2018-05-02T07:51:08.284Z,1570
2018-05-02T07:52:08.511Z,1570
2018-05-02T07:53:08.784Z,1595
2018-05-02T07:54:08.552Z,1605
2018-05-02T07:55:08.225Z,1585
2018-05-02T07:56:08.796Z,1575
2018-05-02T07:57:08.487Z,1635
2018-05-02T07:58:08.858Z,1625
2018-05-02T07:59:08.668Z,1610
2018-05-02T08:00:08.162Z,1585
2018-05-02T08:01:08.419Z,1560
2018-05-02T08:02:08.374Z,1595
2018-05-02T08:03:08.107Z,1620
2018-05-02T08:04:08.584Z,1635
2018-05-02T08:05:08.085Z,1655
2018-05-02T08:06:08.319Z,1660
2018-05-02T08:07:08.301Z,1645
2018-05-02T08:08:08.048Z,1600
2018-05-02T08:09:08.534Z,1505
2018-05-02T08:10:08.257Z,1530
2018-05-02T08:11:09.067Z,1550
2018-05-02T08:12:08.233Z,1520
2018-05-02T08:13:08.478Z,1355
2018-05-02T08:14:07.958Z,1580
2018-05-02T08:15:08.194Z,855
2018-05-02T08:16:08.187Z,525
2018-05-02T08:17:07.924Z,1735
2018-05-02T08:18:08.420Z,1330
2018-05-02T08:19:08.398Z,1190
2018-05-02T08:20:08.385Z,1245
2018-05-02T08:21:08.383Z,590
2018-05-02T08:22:08.279Z,1415
2018-05-02T08:23:07.598Z,1535
2018-05-02T08:24:08.084Z,1495
2018-05-02T08:25:08.500Z,860
2018-05-02T08:26:08.306Z,535
2018-05-02T08:27:07.693Z,1345
2018-05-02T08:28:07.768Z,975
2018-05-02T08:29:08.255Z,520
2018-05-02T08:30:07.742Z,475
2018-05-02T08:31:07.982Z,810
2018-05-02T08:32:07.968Z,500
2018-05-02T08:33:08.240Z,470
2018-05-02T08:34:08.196Z,485
2018-05-02T08:35:07.922Z,1125
2018-05-02T08:36:07.901Z,1030
2018-05-02T08:37:07.882Z,560
2018-05-02T08:38:07.622Z,575
2018-05-02T08:39:07.602Z,590
2018-05-02T08:40:07.587Z,850
2018-05-02T08:41:08.081Z,640
2018-05-02T08:42:08.061Z,475
2018-05-02T08:43:07.540Z,580
2018-05-02T08:44:07.525Z,1040
